Pagrindinis puslapis
METAR-TAF:

METAR-TAF

Oro uostai :

Splitas, Kroatija

platuma: 43-32N, ilguma: 016-18E, Aukštis: 19 m

Dabartinis oras

Ataskaita buvo paskelbta 20 minutes, ne 05:00 UTC
Vėjas 8 kt iš Šiaurės/Šiaurės Rytų
Temperatūra 18°C
Drėgmė 42%
Slėgis 1019 hPa
Matomumas 10 km arba daugiau
nėra debesų žemiau 1500 m ir nėra kamuolinių lietaus debesų

METAR: LDSP 290500Z 02008KT CAVOK 18/05 Q1019 NOSIG

Laikas: 07:20 (05:20 UTC)

Prognozė

Ataskaita buvo paskelbta 5 valandos ir 55 minutes, ne 23:25 UTC
Prognozė galioja nuo 29 metu 00 UTC su 30 metu 00 UTC
Vėjas 5 kt iš Šiaurės Rytų
Matomumas 10 km arba daugiau
nėra debesų žemiau 1500 m ir nėra kamuolinių lietaus debesų
Tapsmas
nuo 29 metu 10 UTC su 29 metu 12 UTC
Vėjas 10 kt iš Pietvakarių
Tapsmas
nuo 29 metu 16 UTC su 29 metu 18 UTC
Vėjas 5 kt iš Šiaurės/Šiaurės Rytų

TAF: LDSP 282325Z 2900/3000 05005KT CAVOK TX24/2912Z TN15/2903Z BECMG 2910/2912 23010KT BECMG 2916/2918 03005KT

Orai ataskaitas ir orų prognozės (METAR, TAF).

turimą stotys yra geltonos ir raudonos taškus žemėlapyje.

Perkelti pele per norėdami pamatyti stoties vardą.

Tada spustelėkite, norėdami matyti oro stebėjimo ir prognozės.

Norėdami pakeisti žemėlapį: spustelėkite ant žalios mygtukų su juodo kryžiaus žemyn,; žalią mygtuką su brūkšneliu, jei norite nutolinti; arba žalių rodyklių gretimoms žemėlapius.


METAR-TAF: